createdAt,value
2023-05-06T00:00:13.127Z,64.44
2023-05-06T00:05:51.548Z,64.44
2023-05-06T00:11:16.028Z,64.45
2023-05-06T00:16:40.320Z,64.50
2023-05-06T00:22:04.801Z,64.62
2023-05-06T00:27:28.955Z,64.78
2023-05-06T00:32:52.805Z,65.25
2023-05-06T00:38:17.885Z,65.66
2023-05-06T00:43:42.758Z,66.03
2023-05-06T00:49:07.219Z,65.93
2023-05-06T00:54:31.444Z,65.78
2023-05-06T00:59:55.724Z,65.84
2023-05-06T01:05:26.471Z,65.82
2023-05-06T01:11:00.597Z,66.00
2023-05-06T01:16:27.494Z,65.99
2023-05-06T01:21:55.462Z,66.28
2023-05-06T01:27:20.723Z,66.42
2023-05-06T01:33:04.647Z,66.58
2023-05-06T01:38:41.403Z,67.14
2023-05-06T01:44:07.687Z,67.71
2023-05-06T01:49:33.143Z,68.53
2023-05-06T01:54:57.137Z,69.06
2023-05-06T02:00:21.612Z,69.90
2023-05-06T02:05:46.199Z,70.22
2023-05-06T02:11:10.145Z,70.77
2023-05-06T02:16:35.691Z,71.62
2023-05-06T02:22:00.686Z,72.01
2023-05-06T02:27:25.164Z,72.38
2023-05-06T02:32:49.314Z,73.00
2023-05-06T02:38:13.952Z,74.36
2023-05-06T02:43:37.844Z,75.72
2023-05-06T02:49:02.481Z,76.89
2023-05-06T02:54:30.544Z,77.49
2023-05-06T02:59:55.127Z,77.36
2023-05-06T03:05:19.205Z,77.32
2023-05-06T03:10:43.475Z,77.06
2023-05-06T03:16:13.739Z,76.79
2023-05-06T03:21:39.385Z,76.96
2023-05-06T03:27:04.434Z,77.42
2023-05-06T03:32:29.832Z,79.07
2023-05-06T03:37:54.277Z,79.84
2023-05-06T03:43:18.844Z,80.58
2023-05-06T03:48:44.632Z,80.64
2023-05-06T03:54:11.722Z,80.89
2023-05-06T03:59:38.300Z,80.80
2023-05-06T04:05:04.598Z,81.10
2023-05-06T04:10:29.504Z,81.37
2023-05-06T04:15:57.891Z,81.11
2023-05-06T04:21:28.158Z,80.97
2023-05-06T04:26:59.654Z,81.27
2023-05-06T04:32:25.998Z,81.72
2023-05-06T04:37:51.246Z,81.85
2023-05-06T04:43:20.654Z,81.93
2023-05-06T04:48:45.810Z,82.30
2023-05-06T04:54:10.860Z,82.37
2023-05-06T04:59:36.437Z,82.69
2023-05-06T05:05:01.487Z,82.95
2023-05-06T05:10:26.588Z,83.24
2023-05-06T05:15:55.191Z,83.25
2023-05-06T05:21:21.339Z,83.92
2023-05-06T05:26:46.323Z,84.10
2023-05-06T05:32:12.727Z,84.07
2023-05-06T05:37:37.814Z,83.99
2023-05-06T05:43:03.281Z,84.33
2023-05-06T05:48:33.000Z,84.49
2023-05-06T05:53:58.600Z,84.63
2023-05-06T05:59:23.279Z,84.90
2023-05-06T06:04:49.722Z,84.95
2023-05-06T06:10:16.203Z,84.98
2023-05-06T06:15:42.494Z,85.23
2023-05-06T06:21:08.252Z,85.44
2023-05-06T06:26:33.435Z,85.39
2023-05-06T06:31:58.903Z,85.21
2023-05-06T06:37:24.451Z,85.15
2023-05-06T06:42:51.789Z,85.22
2023-05-06T06:48:52.174Z,85.03
2023-05-06T06:54:22.349Z,84.89
2023-05-06T06:59:51.018Z,84.64
2023-05-06T07:05:16.931Z,84.37
2023-05-06T07:10:43.155Z,84.06
2023-05-06T07:16:10.168Z,83.84
2023-05-06T07:21:41.123Z,83.88
2023-05-06T07:27:10.615Z,84.01
2023-05-06T07:32:37.521Z,84.27
2023-05-06T07:38:03.978Z,84.18
2023-05-06T07:43:28.446Z,84.01
2023-05-06T07:48:53.200Z,84.01
2023-05-06T07:54:17.456Z,83.69
2023-05-06T07:59:43.067Z,83.67
2023-05-06T08:05:09.232Z,83.45
2023-05-06T08:10:33.942Z,83.46
2023-05-06T08:15:58.866Z,83.41
2023-05-06T08:21:23.293Z,83.40
2023-05-06T08:26:48.248Z,83.07
2023-05-06T08:32:12.729Z,82.76
2023-05-06T08:37:36.866Z,82.61
2023-05-06T08:43:04.119Z,82.68
2023-05-06T08:48:30.252Z,82.55
2023-05-06T08:53:58.952Z,82.50
2023-05-06T08:59:31.480Z,82.30
2023-05-06T09:04:57.089Z,82.35
2023-05-06T09:10:21.736Z,82.21
2023-05-06T09:15:48.484Z,81.85
2023-05-06T09:21:14.232Z,81.71
2023-05-06T09:26:41.342Z,81.92
2023-05-06T09:32:09.144Z,81.43
2023-05-06T09:37:33.832Z,81.49
2023-05-06T09:42:58.407Z,81.19
2023-05-06T09:48:22.867Z,81.20
2023-05-06T09:53:47.970Z,80.25
2023-05-06T09:59:15.153Z,80.49
2023-05-06T10:04:42.467Z,80.37
2023-05-06T10:10:14.613Z,80.29
2023-05-06T10:15:39.740Z,80.59
2023-05-06T10:21:09.536Z,81.07
2023-05-06T10:26:37.872Z,81.28
2023-05-06T10:32:04.400Z,81.51
2023-05-06T10:37:32.308Z,81.95
2023-05-06T10:43:27.975Z,82.26
2023-05-06T10:49:06.973Z,82.44
2023-05-06T10:54:31.478Z,82.64
2023-05-06T10:59:56.262Z,82.78
2023-05-06T11:05:21.281Z,82.66
2023-05-06T11:10:46.087Z,82.92
2023-05-06T11:16:11.456Z,83.72
2023-05-06T11:21:37.159Z,84.17
2023-05-06T11:27:02.184Z,84.60
2023-05-06T11:32:29.974Z,84.64
2023-05-06T11:37:55.382Z,84.46
2023-05-06T11:43:20.537Z,84.82
2023-05-06T11:48:44.988Z,85.76
2023-05-06T11:54:11.306Z,86.21
2023-05-06T11:59:38.305Z,86.42
2023-05-06T12:05:03.405Z,86.56
2023-05-06T12:10:28.228Z,86.29
2023-05-06T12:15:55.804Z,86.12
2023-05-06T12:21:27.213Z,85.81
2023-05-06T12:26:52.298Z,85.79
2023-05-06T12:32:17.003Z,85.63
2023-05-06T12:37:41.629Z,85.41
2023-05-06T12:43:05.812Z,85.22
2023-05-06T12:48:30.656Z,85.14
2023-05-06T12:53:55.223Z,84.89
2023-05-06T12:59:19.465Z,84.96
2023-05-06T13:04:44.547Z,84.93
2023-05-06T13:10:11.282Z,84.93
2023-05-06T13:15:37.778Z,84.87
2023-05-06T13:21:02.492Z,84.83
2023-05-06T13:26:27.138Z,84.98
2023-05-06T13:31:51.977Z,85.33
2023-05-06T13:37:16.563Z,84.85
2023-05-06T13:42:41.957Z,84.85
2023-05-06T13:48:06.395Z,84.94
2023-05-06T13:53:31.351Z,85.18
2023-05-06T13:58:55.835Z,84.76
2023-05-06T14:04:19.702Z,84.83
2023-05-06T14:09:44.334Z,84.84
2023-05-06T14:15:10.700Z,84.71
2023-05-06T14:20:36.673Z,84.71
2023-05-06T14:26:01.803Z,85.04
2023-05-06T14:31:27.077Z,85.55
2023-05-06T14:36:51.421Z,85.85
2023-05-06T14:42:16.113Z,85.78
2023-05-06T14:47:41.418Z,85.43
2023-05-06T14:53:06.663Z,85.96
2023-05-06T14:58:32.329Z,86.18
2023-05-06T15:04:00.575Z,86.05
2023-05-06T15:09:31.578Z,86.02
2023-05-06T15:14:55.807Z,85.74
2023-05-06T15:20:20.248Z,85.66
2023-05-06T15:25:45.587Z,85.41
2023-05-06T15:31:11.257Z,85.85
2023-05-06T15:36:36.032Z,86.09
2023-05-06T15:42:01.504Z,85.96
2023-05-06T15:47:26.777Z,86.32
2023-05-06T15:52:51.041Z,86.75
2023-05-06T15:58:16.160Z,87.38
2023-05-06T16:03:43.780Z,87.75
2023-05-06T16:09:09.200Z,87.64
2023-05-06T16:14:33.823Z,87.58
2023-05-06T16:19:58.246Z,87.65
2023-05-06T16:25:23.881Z,88.33
2023-05-06T16:30:48.855Z,88.65
2023-05-06T16:36:13.771Z,88.80
2023-05-06T16:41:38.165Z,88.95
2023-05-06T16:47:02.260Z,88.44
2023-05-06T16:52:26.556Z,88.60
2023-05-06T16:57:51.690Z,88.06
2023-05-06T17:03:16.609Z,87.75
2023-05-06T17:08:42.031Z,87.99
2023-05-06T17:14:06.472Z,88.21
2023-05-06T17:19:30.749Z,89.10
2023-05-06T17:24:55.380Z,89.26
2023-05-06T17:30:21.111Z,88.92
2023-05-06T17:35:46.354Z,88.76
2023-05-06T17:41:11.479Z,88.51
2023-05-06T17:46:36.168Z,88.64
2023-05-06T17:52:01.734Z,89.16
2023-05-06T17:57:26.223Z,89.13
2023-05-06T18:02:51.156Z,88.68
2023-05-06T18:08:15.888Z,88.89
2023-05-06T18:13:41.145Z,89.32
2023-05-06T18:19:05.866Z,89.26
2023-05-06T18:24:30.043Z,89.24
2023-05-06T18:29:54.521Z,89.25
2023-05-06T18:35:19.463Z,88.73
2023-05-06T18:40:46.358Z,88.52
2023-05-06T18:46:12.145Z,88.60
2023-05-06T18:51:37.230Z,88.87
2023-05-06T18:57:02.772Z,89.11
2023-05-06T19:02:27.230Z,89.27
2023-05-06T19:07:52.007Z,88.86
2023-05-06T19:13:17.432Z,88.40
2023-05-06T19:18:42.087Z,88.43
2023-05-06T19:24:06.934Z,88.68
2023-05-06T19:29:31.121Z,89.06
2023-05-06T19:34:55.702Z,89.42
2023-05-06T19:40:20.076Z,90.01
2023-05-06T19:45:44.668Z,90.11
2023-05-06T19:51:10.222Z,90.28
2023-05-06T19:56:34.710Z,89.91
2023-05-06T20:02:02.010Z,90.41
2023-05-06T20:07:26.712Z,90.62
2023-05-06T20:12:51.637Z,90.69
2023-05-06T20:18:17.010Z,90.84
2023-05-06T20:23:41.998Z,90.68
2023-05-06T20:29:06.495Z,90.85
2023-05-06T20:34:30.843Z,90.91
2023-05-06T20:39:55.794Z,91.15
2023-05-06T20:45:20.569Z,91.44
2023-05-06T20:50:45.716Z,91.71
2023-05-06T20:56:26.394Z,92.21
2023-05-06T21:01:51.090Z,92.33
2023-05-06T21:07:15.402Z,92.24
2023-05-06T21:12:57.310Z,91.88
2023-05-06T21:18:38.893Z,91.86
2023-05-06T21:24:20.796Z,92.01
2023-05-06T21:30:03.178Z,92.14
2023-05-06T21:35:45.034Z,92.76
2023-05-06T21:41:09.832Z,92.51
2023-05-06T21:46:34.724Z,92.60
2023-05-06T21:51:59.912Z,92.45
2023-05-06T21:57:25.665Z,92.77
2023-05-06T22:02:53.660Z,92.88
2023-05-06T22:08:18.156Z,93.06
2023-05-06T22:13:42.591Z,93.22
2023-05-06T22:19:06.810Z,93.32
2023-05-06T22:24:31.957Z,93.33
2023-05-06T22:29:57.115Z,93.71
2023-05-06T22:35:22.182Z,93.84
2023-05-06T22:40:46.313Z,93.74
2023-05-06T22:46:10.179Z,93.95
2023-05-06T22:51:34.608Z,93.68
2023-05-06T22:56:59.877Z,93.85
2023-05-06T23:02:24.489Z,93.85
2023-05-06T23:07:49.398Z,94.14
2023-05-06T23:13:13.335Z,94.10
2023-05-06T23:18:37.327Z,94.42
2023-05-06T23:24:02.143Z,94.76
2023-05-06T23:29:27.267Z,94.77
2023-05-06T23:34:52.890Z,94.64
2023-05-06T23:40:18.048Z,94.91
2023-05-06T23:45:42.847Z,94.80
2023-05-06T23:51:07.581Z,95.03
2023-05-06T23:56:32.024Z,95.09
